Time;durP1;ratioP1;P1;durP2;ratioP2;P2;SDS_P1;SDS_P2;PMS_P1;PMS_P2;Temp;Humidity;BMP_temperature;BMP_pressure;BME280_temperature;BME280_humidity;BME280_pressure;Samples;Min_cycle;Max_cycle;Signal;HPM_P1;HPM_P2
2022/03/07 00:22:21;;;;;;;2.47;2.22;;;;;;;;;;4501134;27;20095;-64
2022/03/07 00:24:47;;;;;;;2.92;2.10;;;;;;;;;;4275086;33;20479;-64
2022/03/07 00:27:13;;;;;;;2.37;1.90;;;;;;;;;;4275951;33;20112;-64
2022/03/07 00:29:39;;;;;;;2.20;2.00;;;;;;;;;;4275732;33;20120;-63
2022/03/07 00:32:06;;;;;;;2.20;2.00;;;;;;;;;;4275386;33;20445;-64
2022/03/07 00:34:32;;;;;;;2.97;2.10;;;;;;;;;;4275970;33;20083;-63
2022/03/07 00:36:58;;;;;;;2.72;2.00;;;;;;;;;;4275657;33;20185;-64
2022/03/07 00:39:23;;;;;;;2.25;1.80;;;;;;;;;;4275511;33;20108;-62
2022/03/07 00:41:49;;;;;;;2.67;1.95;;;;;;;;;;4274372;33;20113;-63
2022/03/07 00:44:15;;;;;;;2.87;2.05;;;;;;;;;;4274079;33;20134;-64
2022/03/07 00:46:42;;;;;;;3.33;2.40;;;;;;;;;;4275540;33;20131;-63
2022/03/07 00:49:08;;;;;;;2.97;2.25;;;;;;;;;;4275547;33;20209;-63
2022/03/07 00:51:34;;;;;;;2.80;2.20;;;;;;;;;;4275635;33;20605;-63
2022/03/07 00:54:00;;;;;;;2.55;1.90;;;;;;;;;;4275505;33;20120;-63
2022/03/07 00:56:26;;;;;;;2.10;1.90;;;;;;;;;;4275585;33;20206;-64
2022/03/07 00:58:52;;;;;;;2.05;1.85;;;;;;;;;;4275678;33;20498;-64
2022/03/07 01:01:18;;;;;;;2.03;1.83;;;;;;;;;;4275562;33;20107;-64
2022/03/07 01:03:44;;;;;;;1.95;1.75;;;;;;;;;;4275333;33;20139;-64
2022/03/07 01:06:10;;;;;;;2.45;1.80;;;;;;;;;;4275425;33;20099;-64
2022/03/07 01:08:36;;;;;;;3.12;2.03;;;;;;;;;;4275622;33;20112;-63
2022/03/07 01:11:02;;;;;;;2.95;2.00;;;;;;;;;;4274069;33;20109;-64
2022/03/07 01:13:29;;;;;;;2.28;2.00;;;;;;;;;;4274075;33;20190;-63
2022/03/07 01:15:55;;;;;;;2.50;1.80;;;;;;;;;;4262233;33;20112;-63
2022/03/07 01:18:21;;;;;;;3.37;2.05;;;;;;;;;;4275540;33;20108;-62
2022/03/07 01:20:47;;;;;;;3.20;2.00;;;;;;;;;;4275243;33;20860;-62
2022/03/07 01:23:13;;;;;;;2.00;1.80;;;;;;;;;;4275434;33;20088;-62
2022/03/07 01:25:40;;;;;;;2.67;1.87;;;;;;;;;;4275289;33;20526;-62
2022/03/07 01:28:06;;;;;;;3.05;2.15;;;;;;;;;;4275271;33;20104;-60
2022/03/07 01:30:32;;;;;;;2.97;2.00;;;;;;;;;;4275220;33;20112;-60
2022/03/07 01:32:58;;;;;;;3.20;2.30;;;;;;;;;;4275227;33;20207;-63
2022/03/07 01:35:24;;;;;;;2.72;2.15;;;;;;;;;;4275417;33;20115;-63
2022/03/07 01:37:50;;;;;;;2.12;1.92;;;;;;;;;;4261895;33;20496;-63
2022/03/07 01:40:16;;;;;;;2.85;2.20;;;;;;;;;;4275004;33;20111;-63
2022/03/07 01:42:42;;;;;;;3.92;2.30;;;;;;;;;;4275070;33;20123;-64
2022/03/07 01:45:17;;;;;;;2.20;2.00;;;;;;;;;;4261801;33;20606;-64
2022/03/07 01:47:44;;;;;;;2.72;2.30;;;;;;;;;;4261798;33;20111;-64
2022/03/07 01:50:12;;;;;;;3.90;2.20;;;;;;;;;;4274987;33;20135;-64
2022/03/07 01:52:40;;;;;;;4.47;2.20;;;;;;;;;;4275002;33;20725;-64
2022/03/07 01:55:08;;;;;;;2.50;2.17;;;;;;;;;;4274851;33;20112;-63
2022/03/07 01:57:39;;;;;;;2.12;1.90;;;;;;;;;;4275037;33;20096;-64
2022/03/07 02:00:07;;;;;;;2.12;1.92;;;;;;;;;;4274789;33;20107;-63
2022/03/07 02:02:33;;;;;;;4.32;2.03;;;;;;;;;;4273615;33;20097;-62
2022/03/07 02:04:59;;;;;;;2.22;2.03;;;;;;;;;;4261585;33;20424;-63
2022/03/07 02:07:25;;;;;;;3.90;2.28;;;;;;;;;;4275312;33;20118;-63
2022/03/07 02:09:52;;;;;;;3.35;2.05;;;;;;;;;;4274607;33;20226;-62
2022/03/07 02:12:18;;;;;;;3.10;1.90;;;;;;;;;;4275313;33;20115;-62
2022/03/07 02:14:44;;;;;;;2.15;1.83;;;;;;;;;;4274804;33;20183;-63
2022/03/07 02:17:10;;;;;;;2.47;1.80;;;;;;;;;;4274967;33;20092;-62
2022/03/07 02:19:37;;;;;;;2.22;1.92;;;;;;;;;;4274744;33;20195;-62
2022/03/07 02:22:04;;;;;;;2.00;1.80;;;;;;;;;;4274836;33;20526;-64
2022/03/07 02:24:30;;;;;;;2.40;2.00;;;;;;;;;;4274620;33;20519;-64
2022/03/07 02:27:01;;;;;;;1.90;1.75;;;;;;;;;;4274871;33;20531;-64
2022/03/07 02:29:27;;;;;;;2.00;1.80;;;;;;;;;;4274726;33;20534;-63
2022/03/07 02:31:54;;;;;;;2.28;1.95;;;;;;;;;;4274621;33;20440;-64
2022/03/07 02:34:20;;;;;;;3.55;2.22;;;;;;;;;;4274662;33;20432;-64
2022/03/07 02:36:46;;;;;;;2.40;1.95;;;;;;;;;;4274741;33;20233;-63
2022/03/07 02:39:12;;;;;;;2.87;2.05;;;;;;;;;;4274583;33;20214;-64
2022/03/07 02:41:38;;;;;;;3.22;2.42;;;;;;;;;;4273508;33;20288;-64
2022/03/07 02:44:05;;;;;;;2.72;2.45;;;;;;;;;;4274536;33;20107;-63
2022/03/07 02:46:31;;;;;;;2.92;1.85;;;;;;;;;;4261537;33;20092;-64
2022/03/07 02:48:57;;;;;;;2.50;2.03;;;;;;;;;;4274483;33;20106;-63
2022/03/07 02:51:23;;;;;;;2.42;2.12;;;;;;;;;;4274779;33;20112;-64
2022/03/07 02:53:51;;;;;;;3.25;2.42;;;;;;;;;;4274369;33;20080;-64
2022/03/07 02:56:17;;;;;;;3.60;2.03;;;;;;;;;;4274404;33;20114;-62
2022/03/07 02:58:43;;;;;;;2.72;2.22;;;;;;;;;;4274295;33;20123;-62
2022/03/07 03:01:10;;;;;;;2.25;2.00;;;;;;;;;;4274687;33;20100;-62
2022/03/07 03:03:36;;;;;;;3.22;2.12;;;;;;;;;;4274512;33;20093;-62
2022/03/07 03:06:02;;;;;;;2.28;2.08;;;;;;;;;;4261290;33;20191;-62
2022/03/07 03:08:28;;;;;;;3.17;2.33;;;;;;;;;;4274376;33;20088;-62
2022/03/07 03:10:55;;;;;;;5.30;2.58;;;;;;;;;;4274181;33;20171;-64
2022/03/07 03:13:22;;;;;;;2.60;2.05;;;;;;;;;;4274193;33;20124;-64
2022/03/07 03:15:49;;;;;;;5.93;2.20;;;;;;;;;;4274185;33;20202;-64
2022/03/07 03:18:16;;;;;;;4.05;2.30;;;;;;;;;;4260822;33;20107;-63
2022/03/07 03:20:43;;;;;;;3.20;2.03;;;;;;;;;;4274628;33;20108;-64
2022/03/07 03:23:10;;;;;;;2.85;2.17;;;;;;;;;;4276403;33;20097;-65
2022/03/07 03:25:36;;;;;;;4.07;2.15;;;;;;;;;;4276212;33;20524;-64
2022/03/07 03:28:02;;;;;;;2.67;2.37;;;;;;;;;;4276430;33;20116;-64
2022/03/07 03:30:28;;;;;;;4.53;2.25;;;;;;;;;;4274787;33;20218;-64
2022/03/07 03:32:54;;;;;;;4.47;2.30;;;;;;;;;;4276317;33;20147;-64
2022/03/07 03:35:21;;;;;;;2.78;2.12;;;;;;;;;;4276373;33;20115;-62
2022/03/07 03:37:47;;;;;;;4.22;2.08;;;;;;;;;;4276239;33;20118;-63
2022/03/07 03:40:13;;;;;;;3.78;2.30;;;;;;;;;;4274896;33;20104;-65
2022/03/07 03:42:40;;;;;;;5.80;2.50;;;;;;;;;;4276122;33;20119;-65
2022/03/07 03:45:08;;;;;;;3.28;2.30;;;;;;;;;;4276063;33;20099;-65
2022/03/07 03:47:38;;;;;;;2.58;2.25;;;;;;;;;;4276027;33;20111;-64
2022/03/07 03:50:06;;;;;;;3.53;2.33;;;;;;;;;;4276307;33;20128;-65
2022/03/07 03:52:32;;;;;;;2.85;2.28;;;;;;;;;;4276180;33;20112;-65
2022/03/07 03:54:58;;;;;;;3.72;2.40;;;;;;;;;;4275794;33;20104;-65
2022/03/07 03:57:24;;;;;;;2.70;2.15;;;;;;;;;;4276086;33;20638;-64
2022/03/07 03:59:51;;;;;;;2.50;2.10;;;;;;;;;;4275636;33;20479;-65
2022/03/07 04:02:17;;;;;;;4.87;2.37;;;;;;;;;;4276138;33;20127;-64
2022/03/07 04:04:43;;;;;;;3.75;2.60;;;;;;;;;;4262596;33;20133;-65
2022/03/07 04:07:09;;;;;;;3.70;2.20;;;;;;;;;;4276065;33;20120;-64
2022/03/07 04:09:35;;;;;;;4.50;2.90;;;;;;;;;;4276008;33;20191;-65
2022/03/07 04:12:01;;;;;;;3.10;2.80;;;;;;;;;;4275914;33;20135;-64
2022/03/07 04:14:27;;;;;;;5.30;2.70;;;;;;;;;;4275761;33;20186;-62
2022/03/07 04:16:53;;;;;;;4.05;3.20;;;;;;;;;;4275900;33;20111;-64
2022/03/07 04:19:20;;;;;;;5.57;4.00;;;;;;;;;;4275860;33;20108;-65
2022/03/07 04:21:46;;;;;;;6.03;4.35;;;;;;;;;;4275734;33;20673;-64
2022/03/07 04:24:13;;;;;;;5.25;3.50;;;;;;;;;;4250612;33;20456;-64
2022/03/07 04:26:40;;;;;;;4.45;2.85;;;;;;;;;;4262429;33;20206;-64
2022/03/07 04:29:08;;;;;;;4.12;3.30;;;;;;;;;;4275555;33;20120;-65
2022/03/07 04:31:35;;;;;;;3.33;2.40;;;;;;;;;;4275311;33;20218;-64
2022/03/07 04:34:03;;;;;;;2.95;2.42;;;;;;;;;;4275701;33;20091;-63
2022/03/07 04:36:29;;;;;;;6.78;3.03;;;;;;;;;;4262342;33;20103;-62
2022/03/07 04:38:55;;;;;;;4.00;3.10;;;;;;;;;;4275604;33;20556;-63
2022/03/07 04:41:21;;;;;;;5.60;3.10;;;;;;;;;;4275627;33;20116;-64
2022/03/07 04:43:47;;;;;;;3.85;2.80;;;;;;;;;;4275616;33;20523;-65
2022/03/07 04:46:13;;;;;;;5.90;3.40;;;;;;;;;;4275242;33;20130;-64
2022/03/07 04:48:39;;;;;;;3.92;2.83;;;;;;;;;;4250496;33;20526;-64
2022/03/07 04:51:06;;;;;;;3.45;2.53;;;;;;;;;;4274149;33;20551;-65
2022/03/07 04:53:32;;;;;;;5.30;3.08;;;;;;;;;;4275452;33;20127;-63
2022/03/07 04:55:58;;;;;;;4.00;2.95;;;;;;;;;;4275276;33;20556;-64
2022/03/07 04:58:24;;;;;;;4.22;3.00;;;;;;;;;;4275416;33;20100;-65
2022/03/07 05:00:52;;;;;;;4.72;3.40;;;;;;;;;;4275451;33;20097;-65
2022/03/07 05:03:18;;;;;;;3.47;2.83;;;;;;;;;;4275662;33;20231;-64
2022/03/07 05:05:44;;;;;;;3.78;3.15;;;;;;;;;;4261846;33;20108;-64
2022/03/07 05:08:10;;;;;;;3.30;2.08;;;;;;;;;;4262118;33;20210;-64
2022/03/07 05:10:36;;;;;;;2.90;2.40;;;;;;;;;;4275371;33;20104;-64
2022/03/07 05:13:02;;;;;;;4.82;2.50;;;;;;;;;;4275396;33;20123;-64
2022/03/07 05:15:28;;;;;;;3.05;2.65;;;;;;;;;;4275285;33;20127;-63
2022/03/07 05:17:54;;;;;;;3.78;2.85;;;;;;;;;;4275551;33;20120;-64
2022/03/07 05:20:21;;;;;;;6.18;2.90;;;;;;;;;;4275221;33;20449;-65
2022/03/07 05:22:48;;;;;;;3.85;2.70;;;;;;;;;;4261993;33;20119;-66
2022/03/07 05:25:15;;;;;;;15.35;3.40;;;;;;;;;;4273682;33;20107;-66
2022/03/07 05:27:41;;;;;;;4.15;2.80;;;;;;;;;;4275251;33;20092;-66
2022/03/07 05:30:10;;;;;;;4.95;2.95;;;;;;;;;;4261578;33;20095;-66
2022/03/07 05:32:36;;;;;;;4.40;3.00;;;;;;;;;;4275220;33;20099;-65
2022/03/07 05:35:03;;;;;;;4.25;2.85;;;;;;;;;;4274685;33;20099;-67
2022/03/07 05:37:29;;;;;;;3.83;3.00;;;;;;;;;;4261936;33;20515;-67
2022/03/07 05:39:55;;;;;;;7.53;3.22;;;;;;;;;;4275286;33;20116;-67
2022/03/07 05:42:21;;;;;;;3.30;2.87;;;;;;;;;;4275220;33;20110;-67
2022/03/07 05:44:48;;;;;;;6.40;3.08;;;;;;;;;;4260993;33;20207;-66
2022/03/07 05:47:14;;;;;;;3.60;2.70;;;;;;;;;;4261780;33;20120;-68
2022/03/07 05:49:40;;;;;;;3.33;3.03;;;;;;;;;;4274938;33;20143;-67
2022/03/07 05:52:06;;;;;;;4.03;3.10;;;;;;;;;;4275021;33;20547;-67
2022/03/07 05:54:32;;;;;;;3.85;3.28;;;;;;;;;;4275190;33;20115;-66
2022/03/07 05:56:58;;;;;;;4.25;3.00;;;;;;;;;;4261703;33;20212;-67
2022/03/07 05:59:24;;;;;;;3.30;3.00;;;;;;;;;;4275079;33;20184;-67
2022/03/07 06:01:50;;;;;;;3.50;2.83;;;;;;;;;;4261344;33;20215;-64
2022/03/07 06:04:16;;;;;;;4.40;3.60;;;;;;;;;;4275105;33;20115;-66
2022/03/07 06:06:42;;;;;;;3.97;3.28;;;;;;;;;;4274734;33;20194;-69
2022/03/07 06:09:08;;;;;;;3.80;3.40;;;;;;;;;;4261831;33;20122;-70
2022/03/07 06:11:35;;;;;;;4.85;3.67;;;;;;;;;;4261395;33;20563;-69
2022/03/07 06:14:01;;;;;;;4.22;3.30;;;;;;;;;;4275088;33;20115;-68
2022/03/07 06:16:27;;;;;;;3.58;3.28;;;;;;;;;;4275012;33;20187;-68
2022/03/07 06:18:53;;;;;;;4.57;3.78;;;;;;;;;;4274742;33;20195;-67
2022/03/07 06:21:19;;;;;;;4.07;3.33;;;;;;;;;;4261287;33;20108;-67
2022/03/07 06:23:45;;;;;;;3.95;3.55;;;;;;;;;;4274608;33;20116;-66
2022/03/07 06:26:11;;;;;;;5.50;3.25;;;;;;;;;;4274925;33;20175;-67
2022/03/07 06:28:37;;;;;;;3.97;3.30;;;;;;;;;;4274690;33;20112;-67
2022/03/07 06:31:03;;;;;;;4.18;3.60;;;;;;;;;;4261416;33;20119;-70
2022/03/07 06:33:29;;;;;;;5.90;3.10;;;;;;;;;;4274646;33;20104;-67
2022/03/07 06:35:55;;;;;;;4.97;3.65;;;;;;;;;;4274841;33;20548;-67
2022/03/07 06:38:21;;;;;;;4.12;3.33;;;;;;;;;;4274628;33;20503;-67
2022/03/07 06:40:48;;;;;;;4.70;4.20;;;;;;;;;;4260970;33;20528;-67
2022/03/07 06:43:13;;;;;;;4.75;3.70;;;;;;;;;;4274614;33;20115;-68
2022/03/07 06:45:40;;;;;;;4.95;3.72;;;;;;;;;;4261161;33;20245;-63
2022/03/07 06:48:06;;;;;;;5.00;3.58;;;;;;;;;;4274591;33;20429;-62
2022/03/07 06:50:33;;;;;;;3.83;3.42;;;;;;;;;;4274343;33;20506;-64
2022/03/07 06:52:59;;;;;;;4.22;3.83;;;;;;;;;;4274308;33;20191;-63
2022/03/07 06:55:26;;;;;;;5.60;3.85;;;;;;;;;;4275815;33;20115;-64
2022/03/07 06:57:52;;;;;;;4.20;3.53;;;;;;;;;;4276541;33;20210;-63
2022/03/07 07:00:19;;;;;;;4.78;3.90;;;;;;;;;;4262885;33;20554;-64
2022/03/07 07:02:45;;;;;;;4.00;3.55;;;;;;;;;;4276569;33;20214;-66
2022/03/07 07:05:12;;;;;;;6.87;3.35;;;;;;;;;;4276242;33;20096;-63
2022/03/07 07:07:38;;;;;;;4.55;3.80;;;;;;;;;;4276397;33;20108;-62
2022/03/07 07:10:05;;;;;;;6.50;4.20;;;;;;;;;;4276357;33;20111;-64
2022/03/07 07:12:31;;;;;;;5.78;3.85;;;;;;;;;;4276392;33;20114;-64
2022/03/07 07:14:57;;;;;;;5.43;3.50;;;;;;;;;;4276698;33;20100;-61
2022/03/07 07:17:23;;;;;;;6.05;4.15;;;;;;;;;;4276684;33;20108;-64
2022/03/07 07:19:49;;;;;;;4.55;3.95;;;;;;;;;;4262475;33;20135;-61
2022/03/07 07:22:15;;;;;;;4.22;3.70;;;;;;;;;;4276382;33;20135;-63
2022/03/07 07:24:42;;;;;;;10.32;4.15;;;;;;;;;;4276045;33;20123;-62
2022/03/07 07:27:08;;;;;;;5.57;4.12;;;;;;;;;;4276180;33;20097;-63
2022/03/07 07:29:35;;;;;;;5.57;4.15;;;;;;;;;;4251239;33;20122;-63
2022/03/07 07:32:02;;;;;;;4.55;3.55;;;;;;;;;;4263042;33;20099;-62
2022/03/07 07:34:28;;;;;;;5.45;4.20;;;;;;;;;;4262867;33;20120;-65
2022/03/07 07:36:55;;;;;;;4.85;4.18;;;;;;;;;;4262914;33;20138;-65
2022/03/07 07:39:21;;;;;;;4.82;4.20;;;;;;;;;;4276386;33;20108;-63
2022/03/07 07:41:47;;;;;;;5.28;3.90;;;;;;;;;;4276223;33;20448;-64
2022/03/07 07:44:15;;;;;;;5.18;4.30;;;;;;;;;;4276472;33;20088;-64
2022/03/07 07:46:42;;;;;;;6.53;4.18;;;;;;;;;;4276029;33;20104;-65
2022/03/07 07:49:08;;;;;;;4.62;4.10;;;;;;;;;;4251028;33;20126;-65
2022/03/07 07:51:34;;;;;;;5.65;4.32;;;;;;;;;;4276181;33;20183;-64
2022/03/07 07:54:00;;;;;;;5.25;4.30;;;;;;;;;;4276063;33;20091;-64
2022/03/07 07:56:27;;;;;;;6.82;5.07;;;;;;;;;;4275780;33;20123;-64
2022/03/07 07:58:53;;;;;;;6.97;5.30;;;;;;;;;;4262540;33;20111;-65
2022/03/07 08:01:19;;;;;;;7.18;4.70;;;;;;;;;;4275982;33;20126;-64
2022/03/07 08:03:45;;;;;;;6.15;4.87;;;;;;;;;;4276065;33;20496;-67
2022/03/07 08:06:11;;;;;;;9.70;5.15;;;;;;;;;;4275490;33;20456;-66
2022/03/07 08:08:37;;;;;;;5.22;4.72;;;;;;;;;;4276162;33;20175;-67
2022/03/07 08:11:03;;;;;;;8.77;4.80;;;;;;;;;;4276257;33;20100;-66
2022/03/07 08:13:29;;;;;;;5.65;4.82;;;;;;;;;;4275905;33;20190;-67
2022/03/07 08:15:55;;;;;;;6.87;4.78;;;;;;;;;;4275785;33;20143;-66
2022/03/07 08:18:21;;;;;;;5.60;4.90;;;;;;;;;;4276093;33;20436;-67
2022/03/07 08:20:47;;;;;;;6.03;4.57;;;;;;;;;;4275627;33;20479;-67
2022/03/07 08:23:13;;;;;;;6.07;4.90;;;;;;;;;;4262520;33;20536;-65
2022/03/07 08:25:39;;;;;;;9.18;4.60;;;;;;;;;;4275486;33;20199;-67
2022/03/07 08:28:06;;;;;;;8.45;4.68;;;;;;;;;;4262656;33;20118;-68
2022/03/07 08:30:33;;;;;;;5.35;4.70;;;;;;;;;;4275667;33;20119;-67
2022/03/07 08:32:59;;;;;;;7.12;5.70;;;;;;;;;;4275674;33;20179;-67
2022/03/07 08:35:25;;;;;;;5.75;5.07;;;;;;;;;;4275658;33;20108;-67
2022/03/07 08:37:53;;;;;;;7.10;5.55;;;;;;;;;;4275730;33;20116;-67
2022/03/07 08:40:20;;;;;;;7.53;5.65;;;;;;;;;;4275264;33;20427;-67
2022/03/07 08:42:47;;;;;;;8.63;6.53;;;;;;;;;;4275563;33;20119;-62
2022/03/07 08:45:13;;;;;;;5.87;5.28;;;;;;;;;;4275320;33;20203;-62
2022/03/07 08:47:39;;;;;;;5.87;5.37;;;;;;;;;;4275699;33;20096;-62
2022/03/07 08:50:08;;;;;;;7.43;5.53;;;;;;;;;;4275559;33;20221;-64
2022/03/07 08:52:35;;;;;;;6.90;5.82;;;;;;;;;;4274910;33;20175;-58
2022/03/07 08:55:01;;;;;;;6.90;5.82;;;;;;;;;;4274130;33;20100;-61
2022/03/07 08:57:27;;;;;;;7.12;6.43;;;;;;;;;;4274298;33;20535;-60
2022/03/07 08:59:53;;;;;;;9.73;6.57;;;;;;;;;;4275300;33;20097;-61
2022/03/07 09:02:19;;;;;;;7.62;6.05;;;;;;;;;;4275311;33;20223;-60
2022/03/07 09:04:45;;;;;;;6.62;5.93;;;;;;;;;;4275510;33;20107;-62
2022/03/07 09:07:11;;;;;;;10.73;6.25;;;;;;;;;;4275578;33;20092;-62
2022/03/07 09:09:37;;;;;;;8.48;6.10;;;;;;;;;;4273881;33;20448;-61
2022/03/07 09:12:04;;;;;;;8.25;6.57;;;;;;;;;;4275516;33;20084;-62
2022/03/07 09:14:31;;;;;;;10.43;6.50;;;;;;;;;;4275287;33;20112;-61
2022/03/07 09:16:57;;;;;;;7.25;6.25;;;;;;;;;;4275398;33;20123;-65
2022/03/07 09:19:23;;;;;;;8.38;6.45;;;;;;;;;;4274025;33;20112;-67
2022/03/07 09:21:49;;;;;;;8.35;6.25;;;;;;;;;;4273070;33;20198;-65
2022/03/07 09:24:16;;;;;;;8.25;6.22;;;;;;;;;;4259573;33;20136;-66
2022/03/07 09:26:41;;;;;;;7.60;6.53;;;;;;;;;;4261006;33;20143;-67
2022/03/07 09:29:10;;;;;;;7.70;6.45;;;;;;;;;;4261889;33;20115;-68
2022/03/07 09:31:36;;;;;;;7.68;6.87;;;;;;;;;;4275263;33;20117;-67
2022/03/07 09:34:03;;;;;;;7.85;6.43;;;;;;;;;;4275292;33;20109;-68
2022/03/07 09:36:29;;;;;;;7.60;6.43;;;;;;;;;;4275248;33;20114;-68
2022/03/07 09:38:55;;;;;;;8.43;6.68;;;;;;;;;;4262008;33;20112;-68
2022/03/07 09:41:22;;;;;;;7.40;5.95;;;;;;;;;;4261904;33;20124;-68
2022/03/07 09:43:48;;;;;;;9.10;6.40;;;;;;;;;;4275150;33;20088;-67
2022/03/07 09:46:15;;;;;;;10.07;6.87;;;;;;;;;;4284991;33;20436;-69
2022/03/07 09:48:42;;;;;;;9.68;6.82;;;;;;;;;;4274782;33;20618;-69
2022/03/07 09:51:08;;;;;;;9.88;6.93;;;;;;;;;;4261979;33;20097;-65
2022/03/07 09:53:34;;;;;;;9.45;6.97;;;;;;;;;;4275324;33;20081;-65
2022/03/07 09:56:01;;;;;;;7.12;6.30;;;;;;;;;;4274900;33;20523;-66
2022/03/07 09:58:27;;;;;;;10.32;8.05;;;;;;;;;;4274903;33;20183;-66
2022/03/07 10:00:53;;;;;;;8.18;7.00;;;;;;;;;;4275029;33;20099;-66
2022/03/07 10:03:19;;;;;;;7.90;7.07;;;;;;;;;;4261586;33;20104;-66
2022/03/07 10:05:47;;;;;;;9.90;6.53;;;;;;;;;;4274927;33;20107;-65
2022/03/07 10:08:26;;;;;;;9.32;7.10;;;;;;;;;;4274940;33;20201;-66
2022/03/07 10:10:53;;;;;;;10.07;7.50;;;;;;;;;;4274811;33;20207;-65
2022/03/07 10:13:21;;;;;;;11.18;7.80;;;;;;;;;;4261619;33;20515;-66
2022/03/07 10:16:02;;;;;;;8.57;7.03;;;;;;;;;;4274195;33;20201;-64
2022/03/07 10:18:29;;;;;;;9.57;7.30;;;;;;;;;;4274133;33;20171;-65
2022/03/07 10:20:58;;;;;;;11.57;7.45;;;;;;;;;;4274306;33;20132;-65
2022/03/07 10:23:28;;;;;;;8.35;6.62;;;;;;;;;;4261705;33;20487;-65
2022/03/07 10:26:14;;;;;;;10.65;6.93;;;;;;;;;;4275013;33;20115;-66
2022/03/07 10:28:41;;;;;;;9.35;7.20;;;;;;;;;;4249300;33;20471;-66
2022/03/07 10:31:15;;;;;;;10.10;7.72;;;;;;;;;;4274400;33;20504;-64
2022/03/07 10:33:41;;;;;;;9.23;7.35;;;;;;;;;;4274726;33;20108;-64
2022/03/07 10:36:08;;;;;;;8.65;6.50;;;;;;;;;;4274751;33;20205;-64
2022/03/07 10:38:34;;;;;;;17.75;8.02;;;;;;;;;;4274603;33;20114;-64
2022/03/07 10:41:00;;;;;;;10.68;7.40;;;;;;;;;;4261181;33;20120;-64
2022/03/07 10:43:26;;;;;;;9.02;6.53;;;;;;;;;;4274921;33;20433;-64
2022/03/07 10:45:57;;;;;;;8.98;7.37;;;;;;;;;;4274582;33;20112;-63
2022/03/07 10:48:25;;;;;;;12.77;7.47;;;;;;;;;;4261446;33;20120;-64
2022/03/07 10:50:58;;;;;;;8.65;7.68;;;;;;;;;;4275063;33;20202;-63
2022/03/07 10:53:26;;;;;;;9.88;7.70;;;;;;;;;;4275013;33;20516;-64
2022/03/07 10:55:53;;;;;;;9.07;7.00;;;;;;;;;;4274997;33;20118;-63
2022/03/07 10:58:20;;;;;;;8.10;6.90;;;;;;;;;;4274809;33;20187;-62
2022/03/07 11:00:55;;;;;;;8.00;6.97;;;;;;;;;;4273061;33;20329;-63
2022/03/07 11:03:25;;;;;;;9.40;6.93;;;;;;;;;;4272353;33;20119;-63
2022/03/07 11:05:52;;;;;;;9.15;7.78;;;;;;;;;;4272122;33;20638;-62
2022/03/07 11:08:20;;;;;;;12.05;7.32;;;;;;;;;;4272187;33;20540;-62
2022/03/07 11:10:52;;;;;;;7.32;6.62;;;;;;;;;;4272186;33;20104;-62
2022/03/07 11:13:20;;;;;;;10.95;7.22;;;;;;;;;;4272110;33;20122;-62
2022/03/07 11:15:47;;;;;;;8.95;7.03;;;;;;;;;;4272279;33;20123;-62
2022/03/07 11:18:14;;;;;;;9.50;7.72;;;;;;;;;;4274168;33;20112;-62
2022/03/07 11:20:42;;;;;;;10.85;7.78;;;;;;;;;;4274290;33;20120;-62
2022/03/07 11:23:10;;;;;;;9.98;7.18;;;;;;;;;;4274138;33;20099;-62
2022/03/07 11:25:37;;;;;;;8.13;6.45;;;;;;;;;;4274159;33;20508;-62
2022/03/07 11:28:04;;;;;;;8.35;6.97;;;;;;;;;;4260758;33;20210;-62
2022/03/07 11:30:35;;;;;;;10.80;7.43;;;;;;;;;;4260893;33;20114;-62
2022/03/07 11:33:12;;;;;;;8.55;6.90;;;;;;;;;;4274246;33;20104;-62
2022/03/07 11:35:43;;;;;;;12.30;7.15;;;;;;;;;;4260682;33;20203;-62
2022/03/07 11:38:14;;;;;;;10.10;7.53;;;;;;;;;;4272142;33;20095;-61
2022/03/07 11:41:11;;;;;;;8.60;6.35;;;;;;;;;;4272760;33;20124;-60
2022/03/07 11:44:09;;;;;;;8.63;5.87;;;;;;;;;;4276193;33;20091;-61
2022/03/07 11:46:44;;;;;;;7.47;5.82;;;;;;;;;;4270061;33;20563;-63
2022/03/07 11:49:11;;;;;;;9.30;6.68;;;;;;;;;;4276092;33;20179;-62
2022/03/07 11:51:39;;;;;;;7.53;6.12;;;;;;;;;;4276325;33;20147;-62
2022/03/07 11:54:06;;;;;;;9.32;5.65;;;;;;;;;;4276048;33;20127;-63
2022/03/07 11:56:37;;;;;;;10.32;6.45;;;;;;;;;;4276083;33;20257;-63
2022/03/07 11:59:06;;;;;;;10.65;7.25;;;;;;;;;;4275996;33;20448;-62
2022/03/07 12:01:32;;;;;;;8.80;6.78;;;;;;;;;;4262793;33;20207;-63
2022/03/07 12:04:16;;;;;;;9.18;6.78;;;;;;;;;;4275936;33;20615;-63
2022/03/07 12:06:49;;;;;;;9.27;7.35;;;;;;;;;;4275978;33;20127;-63
2022/03/07 12:09:32;;;;;;;10.75;8.40;;;;;;;;;;4275901;33;20108;-63
2022/03/07 12:12:02;;;;;;;8.90;7.68;;;;;;;;;;4275233;33;20532;-63
2022/03/07 12:14:31;;;;;;;9.68;7.35;;;;;;;;;;4275782;33;20105;-62
2022/03/07 12:16:58;;;;;;;10.82;6.60;;;;;;;;;;4274464;33;20125;-63
2022/03/07 12:19:24;;;;;;;8.75;6.20;;;;;;;;;;4262264;33;20535;-64
2022/03/07 12:21:50;;;;;;;9.07;6.68;;;;;;;;;;4276015;33;20525;-63
2022/03/07 12:24:18;;;;;;;7.80;7.00;;;;;;;;;;4275653;33;20092;-62
2022/03/07 12:26:48;;;;;;;8.70;7.20;;;;;;;;;;4275929;33;20103;-64
2022/03/07 12:29:15;;;;;;;8.88;7.35;;;;;;;;;;4275730;33;20437;-63
2022/03/07 12:32:04;;;;;;;8.52;7.00;;;;;;;;;;4275734;33;20126;-62
2022/03/07 12:34:32;;;;;;;11.15;6.57;;;;;;;;;;4275631;33;20122;-63
2022/03/07 12:37:03;;;;;;;7.82;6.97;;;;;;;;;;4262297;33;20126;-63
2022/03/07 12:39:32;;;;;;;8.82;6.65;;;;;;;;;;4273444;33;20131;-62
2022/03/07 12:42:00;;;;;;;10.05;6.65;;;;;;;;;;4274737;33;20135;-63
2022/03/07 12:44:26;;;;;;;9.60;6.90;;;;;;;;;;4275564;33;20107;-63
2022/03/07 12:46:52;;;;;;;7.15;5.80;;;;;;;;;;4275844;33;20507;-64
2022/03/07 12:49:19;;;;;;;7.30;5.85;;;;;;;;;;4274463;33;20744;-63
2022/03/07 12:51:45;;;;;;;7.93;6.18;;;;;;;;;;4275121;33;20472;-63
2022/03/07 12:54:12;;;;;;;7.53;6.43;;;;;;;;;;4262088;33;20127;-63
2022/03/07 12:56:46;;;;;;;8.43;6.43;;;;;;;;;;4273831;33;20501;-61
2022/03/07 12:59:13;;;;;;;6.82;6.10;;;;;;;;;;4272239;33;20175;-64
2022/03/07 13:01:49;;;;;;;10.15;6.35;;;;;;;;;;4261994;33;20127;-64
2022/03/07 13:04:16;;;;;;;;;;;;;;;;;;4261999;33;20144;-64
2022/03/07 13:06:47;;;;;;;7.78;6.47;;;;;;;;;;4274031;33;20014;-65
2022/03/07 13:09:14;;;;;;;7.57;6.75;;;;;;;;;;4273128;33;20176;-66
2022/03/07 13:11:42;;;;;;;9.88;6.97;;;;;;;;;;4261266;33;20218;-65
2022/03/07 13:14:09;;;;;;;8.88;5.95;;;;;;;;;;4272935;33;20124;-62
2022/03/07 13:16:37;;;;;;;8.95;7.15;;;;;;;;;;4275038;33;20448;-65
2022/03/07 13:19:08;;;;;;;8.40;6.75;;;;;;;;;;4272925;33;20223;-68
2022/03/07 13:21:40;;;;;;;7.53;6.50;;;;;;;;;;4272748;33;20515;-65
2022/03/07 13:24:08;;;;;;;9.13;7.10;;;;;;;;;;4261319;33;20096;-65
2022/03/07 13:26:35;;;;;;;8.10;6.18;;;;;;;;;;4275435;33;20088;-67
2022/03/07 13:29:03;;;;;;;8.10;6.37;;;;;;;;;;4273506;33;20097;-65
2022/03/07 13:31:46;;;;;;;8.10;6.00;;;;;;;;;;4261575;33;20107;-64
2022/03/07 13:34:14;;;;;;;7.28;6.30;;;;;;;;;;4275345;33;20111;-67
2022/03/07 13:36:45;;;;;;;7.87;6.53;;;;;;;;;;4260930;33;20557;-66
2022/03/07 13:39:29;;;;;;;7.97;6.28;;;;;;;;;;4272695;33;20107;-66
2022/03/07 13:42:03;;;;;;;6.75;5.93;;;;;;;;;;4273740;33;20091;-66
2022/03/07 13:44:31;;;;;;;7.35;5.97;;;;;;;;;;4274858;33;20107;-66
2022/03/07 13:46:59;;;;;;;7.00;6.20;;;;;;;;;;4275337;33;20226;-63
2022/03/07 13:49:28;;;;;;;7.53;6.68;;;;;;;;;;4260910;33;20173;-64
2022/03/07 13:51:56;;;;;;;11.57;6.95;;;;;;;;;;4274961;33;20103;-65
2022/03/07 13:54:23;;;;;;;8.25;6.12;;;;;;;;;;4272761;33;20678;-64
2022/03/07 13:56:49;;;;;;;8.68;5.72;;;;;;;;;;4273258;33;20584;-63
2022/03/07 13:59:16;;;;;;;9.73;6.65;;;;;;;;;;4273685;33;20283;-64
2022/03/07 14:01:42;;;;;;;6.68;5.80;;;;;;;;;;4273777;33;20601;-64
2022/03/07 14:04:16;;;;;;;6.95;6.05;;;;;;;;;;4273618;33;20119;-64
2022/03/07 14:06:44;;;;;;;6.93;5.68;;;;;;;;;;4274713;33;20120;-66
2022/03/07 14:09:11;;;;;;;8.15;5.40;;;;;;;;;;4274799;33;20123;-65
2022/03/07 14:11:38;;;;;;;7.50;5.37;;;;;;;;;;4274597;33;20464;-62
2022/03/07 14:14:16;;;;;;;8.85;6.50;;;;;;;;;;4274526;33;20547;-64
2022/03/07 14:16:42;;;;;;;10.32;6.87;;;;;;;;;;4274934;33;20092;-65
2022/03/07 14:19:08;;;;;;;9.80;6.62;;;;;;;;;;4273795;33;22062;-63
2022/03/07 14:21:35;;;;;;;8.38;6.90;;;;;;;;;;4274889;33;20115;-66
2022/03/07 14:24:02;;;;;;;7.50;6.50;;;;;;;;;;4274804;33;20123;-62
2022/03/07 14:26:29;;;;;;;14.43;12.15;;;;;;;;;;4275089;33;20188;-62
2022/03/07 14:29:02;;;;;;;10.50;6.68;;;;;;;;;;4246575;33;20100;-62
2022/03/07 14:31:29;;;;;;;8.30;5.93;;;;;;;;;;4246399;33;20249;-62
2022/03/07 14:33:55;;;;;;;8.30;6.50;;;;;;;;;;4246061;33;20085;-62
2022/03/07 14:36:21;;;;;;;9.05;6.43;;;;;;;;;;4246022;33;20104;-62
2022/03/07 14:38:47;;;;;;;7.75;5.90;;;;;;;;;;4244129;33;20117;-61
2022/03/07 14:41:13;;;;;;;7.12;5.72;;;;;;;;;;4243719;33;20093;-61
2022/03/07 14:43:40;;;;;;;7.47;6.47;;;;;;;;;;4244652;33;20504;-61
2022/03/07 14:46:07;;;;;;;8.13;6.50;;;;;;;;;;4246412;33;20101;-61
2022/03/07 14:48:34;;;;;;;6.80;6.10;;;;;;;;;;4246107;33;20212;-61
2022/03/07 14:51:01;;;;;;;8.95;6.78;;;;;;;;;;4244325;33;20125;-61
2022/03/07 14:53:27;;;;;;;8.32;6.45;;;;;;;;;;4246051;33;20097;-61
2022/03/07 14:55:54;;;;;;;11.25;7.47;;;;;;;;;;4245570;33;20187;-60
2022/03/07 14:58:21;;;;;;;23.15;7.75;;;;;;;;;;4246379;33;20081;-61
2022/03/07 15:00:47;;;;;;;11.95;7.90;;;;;;;;;;4245819;33;20737;-61
2022/03/07 15:03:13;;;;;;;13.65;8.18;;;;;;;;;;4245872;33;20120;-60
2022/03/07 15:05:39;;;;;;;10.52;7.80;;;;;;;;;;4245737;33;20093;-61